Time;durP1;ratioP1;P1;durP2;ratioP2;P2;SDS_P1;SDS_P2;PMS_P1;PMS_P2;Temp;Humidity;BMP_temperature;BMP_pressure;BME280_temperature;BME280_humidity;BME280_pressure;Samples;Min_cycle;Max_cycle;Signal;HPM_P1;HPM_P2
2021/07/02 00:00:06;;;;;;;;;;;15.40;99.90;;;;;;5088116;28;20340;-68
2021/07/02 00:02:35;;;;;;;;;;;15.40;99.90;;;;;;5086876;28;20328;-68
2021/07/02 00:05:03;;;;;;;;;;;15.30;99.90;;;;;;5089341;28;19924;-68
2021/07/02 00:07:30;;;;;;;;;;;15.30;99.90;;;;;;5086551;28;19970;-68
2021/07/02 00:09:56;;;;;;;;;;;15.30;99.90;;;;;;5084067;28;19986;-68
2021/07/02 00:12:23;;;;;;;;;;;15.30;99.90;;;;;;5082188;28;20367;-68
2021/07/02 00:14:50;;;;;;;;;;;15.30;99.90;;;;;;5086997;28;20045;-68
2021/07/02 00:17:16;;;;;;;;;;;15.20;99.90;;;;;;5084646;28;19928;-68
2021/07/02 00:19:43;;;;;;;;;;;15.20;99.90;;;;;;5082106;28;20290;-68
2021/07/02 00:22:10;;;;;;;;;;;15.20;99.90;;;;;;5078651;28;19955;-67
2021/07/02 00:24:36;;;;;;;;;;;15.20;99.90;;;;;;5086239;28;19972;-68
2021/07/02 00:27:03;;;;;;;;;;;15.20;99.90;;;;;;5084624;28;20689;-68
2021/07/02 00:29:30;;;;;;;;;;;15.20;99.90;;;;;;5085307;28;20000;-67
2021/07/02 00:31:57;;;;;;;;;;;15.20;99.90;;;;;;5110690;27;19967;-68
2021/07/02 00:34:23;;;;;;;;;;;15.20;99.90;;;;;;5099746;28;19979;-68
2021/07/02 00:36:50;;;;;;;;;;;15.20;99.90;;;;;;5084445;28;20013;-68
2021/07/02 00:39:17;;;;;;;;;;;15.20;99.90;;;;;;5080556;28;19924;-68
2021/07/02 00:41:43;;;;;;;;;;;15.20;99.90;;;;;;5084277;28;19954;-67
2021/07/02 00:44:10;;;;;;;;;;;15.20;99.90;;;;;;5088773;28;19967;-68
2021/07/02 00:46:37;;;;;;;;;;;15.30;99.90;;;;;;5086859;28;19963;-67
2021/07/02 00:49:04;;;;;;;;;;;15.30;99.90;;;;;;5082994;28;19928;-68
2021/07/02 00:51:31;;;;;;;;;;;15.30;99.90;;;;;;5085668;28;19932;-68
2021/07/02 00:53:58;;;;;;;;;;;15.30;99.90;;;;;;5118838;27;19963;-68
2021/07/02 00:56:25;;;;;;;;;;;15.40;99.90;;;;;;5085909;28;19971;-68
2021/07/02 00:58:52;;;;;;;;;;;15.40;99.90;;;;;;5085332;28;19968;-68
2021/07/02 01:01:18;;;;;;;;;;;15.40;99.90;;;;;;5086601;28;19966;-68
2021/07/02 01:03:47;;;;;;;;;;;15.40;99.90;;;;;;5079477;28;19956;-67
2021/07/02 01:06:14;;;;;;;;;;;15.30;99.90;;;;;;5087931;28;19994;-68
2021/07/02 01:08:42;;;;;;;;;;;15.30;99.90;;;;;;5083291;28;19956;-67
2021/07/02 01:11:09;;;;;;;;;;;15.30;99.90;;;;;;5083793;28;19956;-67
2021/07/02 01:13:36;;;;;;;;;;;15.30;99.90;;;;;;5084924;28;19955;-67
2021/07/02 01:16:03;;;;;;;;;;;15.40;99.90;;;;;;5090994;28;20061;-68
2021/07/02 01:18:29;;;;;;;;;;;15.40;99.90;;;;;;5090966;28;20391;-68
2021/07/02 01:20:56;;;;;;;;;;;15.40;99.90;;;;;;5092636;28;19967;-67
2021/07/02 01:26:51;;;;;;;;;;;15.40;99.90;;;;;;5089319;28;20044;-68
2021/07/02 01:29:19;;;;;;;;;;;15.40;99.90;;;;;;5087018;28;19924;-68
2021/07/02 01:34:59;;;;;;;;;;;15.30;99.90;;;;;;5089149;28;19928;-68
2021/07/02 01:37:26;;;;;;;;;;;15.30;99.90;;;;;;5087013;28;19964;-68
2021/07/02 01:39:53;;;;;;;;;;;15.30;99.90;;;;;;5087484;28;19947;-68
2021/07/02 01:42:19;;;;;;;;;;;15.30;99.90;;;;;;5087760;28;19979;-68
2021/07/02 01:44:46;;;;;;;;;;;15.30;99.90;;;;;;5091194;28;20045;-68
2021/07/02 01:47:13;;;;;;;;;;;15.20;99.90;;;;;;5085246;28;19991;-68
2021/07/02 01:49:39;;;;;;;;;;;15.20;99.90;;;;;;5091823;28;20381;-68
2021/07/02 01:52:06;;;;;;;;;;;15.20;99.90;;;;;;5084158;28;19972;-68
2021/07/02 01:54:32;;;;;;;;;;;15.20;99.90;;;;;;5091032;28;20073;-67
2021/07/02 01:57:00;;;;;;;;;;;15.20;99.90;;;;;;5088479;28;19928;-68
2021/07/02 01:59:27;;;;;;;;;;;15.20;99.90;;;;;;5091108;28;19972;-67
2021/07/02 02:01:53;;;;;;;;;;;15.20;99.90;;;;;;5087433;28;20352;-67
2021/07/02 02:04:20;;;;;;;;;;;15.20;99.90;;;;;;5089312;28;19967;-67
2021/07/02 02:06:46;;;;;;;;;;;15.20;99.90;;;;;;5089724;28;19928;-68
2021/07/02 02:09:13;;;;;;;;;;;15.20;99.90;;;;;;5091322;28;19974;-67
2021/07/02 02:11:40;;;;;;;;;;;15.20;99.90;;;;;;5088749;28;19967;-67
2021/07/02 02:14:10;;;;;;;;;;;15.20;99.90;;;;;;5090174;28;19924;-67
2021/07/02 02:16:41;;;;;;;;;;;15.20;99.90;;;;;;5091827;28;19924;-67
2021/07/02 02:19:08;;;;;;;;;;;15.20;99.90;;;;;;5124026;27;19927;-67
2021/07/02 02:21:35;;;;;;;;;;;15.20;99.90;;;;;;5119885;27;20450;-68
2021/07/02 02:24:01;;;;;;;;;;;15.20;99.90;;;;;;5089835;28;19924;-68
2021/07/02 02:26:28;;;;;;;;;;;15.30;99.90;;;;;;5090716;28;19928;-67
2021/07/02 02:28:55;;;;;;;;;;;15.30;99.90;;;;;;5091494;28;20009;-68
2021/07/02 02:31:21;;;;;;;;;;;15.40;99.90;;;;;;5087198;28;19990;-68
2021/07/02 02:33:49;;;;;;;;;;;15.30;99.90;;;;;;5089732;28;19927;-68
2021/07/02 02:36:15;;;;;;;;;;;15.30;99.90;;;;;;5088229;28;20275;-68
2021/07/02 02:38:42;;;;;;;;;;;15.30;99.90;;;;;;5089149;28;20393;-67
2021/07/02 02:41:09;;;;;;;;;;;15.20;99.90;;;;;;5085582;28;20023;-67
2021/07/02 02:43:35;;;;;;;;;;;15.20;99.90;;;;;;5112366;27;19981;-68
2021/07/02 02:46:02;;;;;;;;;;;15.10;99.90;;;;;;5091052;28;20336;-67
2021/07/02 02:48:29;;;;;;;;;;;15.10;99.90;;;;;;5085443;28;19977;-68
2021/07/02 02:50:56;;;;;;;;;;;15.10;99.90;;;;;;5089671;28;20316;-67
2021/07/02 02:53:23;;;;;;;;;;;15.10;99.90;;;;;;5084624;28;20494;-67
2021/07/02 02:55:49;;;;;;;;;;;15.10;99.90;;;;;;5090943;28;20340;-67
2021/07/02 02:58:16;;;;;;;;;;;15.10;99.90;;;;;;5084475;28;19963;-68
2021/07/02 03:00:43;;;;;;;;;;;15.10;99.90;;;;;;5083530;28;20291;-68
2021/07/02 03:03:10;;;;;;;;;;;15.10;99.90;;;;;;5084162;28;19943;-67
2021/07/02 03:05:36;;;;;;;;;;;15.10;99.90;;;;;;5089451;28;19970;-68
2021/07/02 03:08:03;;;;;;;;;;;15.10;99.90;;;;;;5089158;28;19963;-67
2021/07/02 03:10:30;;;;;;;;;;;15.00;99.90;;;;;;5087793;28;19975;-68
2021/07/02 03:12:57;;;;;;;;;;;15.00;99.90;;;;;;5087620;28;19928;-68
2021/07/02 03:15:25;;;;;;;;;;;15.00;99.90;;;;;;5088173;28;20031;-68
2021/07/02 03:17:52;;;;;;;;;;;15.00;99.90;;;;;;5085915;28;20005;-68
2021/07/02 03:20:19;;;;;;;;;;;15.00;99.90;;;;;;5090344;28;19959;-68
2021/07/02 03:22:46;;;;;;;;;;;15.00;99.90;;;;;;5084257;28;19924;-67
2021/07/02 03:25:12;;;;;;;;;;;15.00;99.90;;;;;;5090319;28;19969;-68
2021/07/02 03:27:39;;;;;;;;;;;15.00;99.90;;;;;;5087598;28;20336;-68
2021/07/02 03:30:07;;;;;;;;;;;15.00;99.90;;;;;;5090398;28;20313;-68
2021/07/02 03:32:34;;;;;;;;;;;15.00;99.90;;;;;;5080656;28;19977;-68
2021/07/02 03:35:01;;;;;;;;;;;15.10;99.90;;;;;;5090022;28;19955;-68
2021/07/02 03:37:28;;;;;;;;;;;15.00;99.90;;;;;;5079358;28;20073;-68
2021/07/02 03:39:54;;;;;;;;;;;15.00;99.90;;;;;;5080502;28;19924;-68
2021/07/02 03:42:21;;;;;;;;;;;15.00;99.90;;;;;;5081906;28;19975;-68
2021/07/02 03:44:48;;;;;;;;;;;15.00;99.90;;;;;;5085287;28;20009;-68
2021/07/02 03:47:15;;;;;;;;;;;15.00;99.90;;;;;;5087238;28;20005;-68
2021/07/02 03:49:41;;;;;;;;;;;14.90;99.90;;;;;;5087952;28;19967;-68
2021/07/02 03:52:08;;;;;;;;;;;14.90;99.90;;;;;;5085826;28;19967;-68
2021/07/02 03:54:35;;;;;;;;;;;14.90;99.90;;;;;;5089103;28;20397;-68
2021/07/02 03:57:11;;;;;;;;;;;15.00;99.90;;;;;;5087591;28;20052;-67
2021/07/02 03:59:41;;;;;;;;;;;14.90;99.90;;;;;;5084703;28;20339;-68
2021/07/02 04:02:08;;;;;;;;;;;14.90;99.90;;;;;;5080165;28;19925;-67
2021/07/02 04:04:35;;;;;;;;;;;14.90;99.90;;;;;;5085054;28;20004;-68
2021/07/02 04:07:06;;;;;;;;;;;14.90;99.90;;;;;;5084103;28;20317;-68
2021/07/02 04:09:33;;;;;;;;;;;14.90;99.90;;;;;;5091041;28;19938;-68
2021/07/02 04:12:00;;;;;;;;;;;14.90;99.90;;;;;;5082579;28;19932;-68
2021/07/02 04:14:28;;;;;;;;;;;14.90;99.90;;;;;;5086839;28;19967;-68
2021/07/02 04:16:55;;;;;;;;;;;14.90;99.90;;;;;;5083257;28;19948;-68
2021/07/02 04:19:22;;;;;;;;;;;14.90;99.90;;;;;;5084144;28;19932;-67
2021/07/02 04:21:49;;;;;;;;;;;15.00;99.90;;;;;;5075070;28;20031;-68
2021/07/02 04:24:16;;;;;;;;;;;14.90;99.90;;;;;;5083946;28;20045;-68
2021/07/02 04:26:43;;;;;;;;;;;14.90;99.90;;;;;;5081242;28;19928;-67
2021/07/02 04:29:10;;;;;;;;;;;14.90;99.90;;;;;;5081903;28;19958;-68
2021/07/02 04:31:37;;;;;;;;;;;14.90;99.90;;;;;;5083210;28;20011;-67
2021/07/02 04:34:04;;;;;;;;;;;14.90;99.90;;;;;;5082145;28;20309;-68
2021/07/02 04:36:31;;;;;;;;;;;14.90;99.90;;;;;;5083322;28;19925;-67
2021/07/02 04:38:57;;;;;;;;;;;14.90;99.90;;;;;;5077391;28;19977;-67
2021/07/02 04:41:24;;;;;;;;;;;14.90;99.90;;;;;;5079956;28;19967;-68
2021/07/02 04:43:51;;;;;;;;;;;14.90;99.90;;;;;;5083725;28;21890;-68
2021/07/02 04:46:17;;;;;;;;;;;14.90;99.90;;;;;;5121062;27;19947;-68
2021/07/02 04:48:44;;;;;;;;;;;14.90;99.90;;;;;;5127912;27;19970;-68
2021/07/02 04:51:11;;;;;;;;;;;14.90;99.90;;;;;;5112509;27;19935;-68
2021/07/02 04:53:38;;;;;;;;;;;14.90;99.90;;;;;;5084667;28;19967;-68
2021/07/02 04:56:05;;;;;;;;;;;14.90;99.90;;;;;;5092068;28;19958;-68
2021/07/02 04:58:32;;;;;;;;;;;15.00;99.90;;;;;;5085338;28;19924;-68
2021/07/02 05:00:59;;;;;;;;;;;14.90;99.90;;;;;;5088210;28;19938;-68
2021/07/02 05:03:26;;;;;;;;;;;14.90;99.90;;;;;;5087216;28;19962;-68
2021/07/02 05:05:52;;;;;;;;;;;14.90;99.90;;;;;;5084330;28;19924;-68
2021/07/02 05:08:20;;;;;;;;;;;14.90;99.90;;;;;;5080842;28;19967;-68
2021/07/02 05:10:47;;;;;;;;;;;15.00;99.90;;;;;;5088487;28;19963;-68
2021/07/02 05:13:13;;;;;;;;;;;15.00;99.90;;;;;;5086028;28;19977;-67
2021/07/02 05:15:40;;;;;;;;;;;15.00;99.90;;;;;;5094331;28;19980;-68
2021/07/02 05:18:07;;;;;;;;;;;15.00;99.90;;;;;;5082447;28;20056;-68
2021/07/02 05:20:33;;;;;;;;;;;15.00;99.90;;;;;;5088700;28;20018;-68
2021/07/02 05:23:00;;;;;;;;;;;15.10;99.90;;;;;;5088409;28;19994;-68
2021/07/02 05:25:26;;;;;;;;;;;15.10;99.90;;;;;;5085301;28;20367;-68
2021/07/02 05:27:53;;;;;;;;;;;15.10;99.90;;;;;;5085221;28;19924;-68
2021/07/02 05:30:20;;;;;;;;;;;15.10;99.90;;;;;;5089746;28;19924;-68
2021/07/02 05:32:47;;;;;;;;;;;15.10;99.90;;;;;;5086746;28;20308;-67
2021/07/02 05:35:13;;;;;;;;;;;15.20;99.90;;;;;;5090441;28;19924;-68
2021/07/02 05:37:41;;;;;;;;;;;15.20;99.90;;;;;;5084686;28;19975;-68
2021/07/02 05:40:08;;;;;;;;;;;15.20;99.90;;;;;;5082399;28;19968;-68
2021/07/02 05:42:35;;;;;;;;;;;15.20;99.90;;;;;;5081844;28;19924;-67
2021/07/02 05:45:01;;;;;;;;;;;15.30;99.90;;;;;;5086812;28;19960;-68
2021/07/02 05:47:28;;;;;;;;;;;15.30;99.90;;;;;;5085557;28;19975;-68
2021/07/02 05:50:20;;;;;;;;;;;15.30;99.90;;;;;;5066495;28;19993;-68
2021/07/02 05:52:47;;;;;;;;;;;15.30;99.90;;;;;;5070663;28;19993;-68
2021/07/02 05:55:13;;;;;;;;;;;15.40;99.90;;;;;;5072585;28;19972;-68
2021/07/02 05:57:40;;;;;;;;;;;15.40;99.90;;;;;;5069905;28;20283;-68
2021/07/02 06:00:08;;;;;;;;;;;15.40;99.90;;;;;;5071178;28;19982;-67
2021/07/02 06:02:35;;;;;;;;;;;15.40;99.90;;;;;;5066907;28;20001;-68
2021/07/02 06:05:03;;;;;;;;;;;15.50;99.90;;;;;;5070037;28;19982;-68
2021/07/02 06:07:40;;;;;;;;;;;15.50;99.90;;;;;;5072129;28;19989;-68
2021/07/02 06:10:07;;;;;;;;;;;15.50;99.90;;;;;;5072218;28;19954;-68
2021/07/02 06:12:34;;;;;;;;;;;15.50;99.90;;;;;;5069717;28;19970;-68
2021/07/02 06:15:01;;;;;;;;;;;15.50;99.90;;;;;;5071637;28;20069;-68
2021/07/02 06:17:28;;;;;;;;;;;15.50;99.90;;;;;;5072441;28;19977;-67
2021/07/02 06:19:54;;;;;;;;;;;15.50;99.90;;;;;;5071304;28;20020;-68
2021/07/02 06:22:21;;;;;;;;;;;15.50;99.90;;;;;;5068342;28;19970;-68
2021/07/02 06:24:47;;;;;;;;;;;15.50;99.90;;;;;;5070680;28;20391;-68
2021/07/02 06:27:14;;;;;;;;;;;15.60;99.90;;;;;;5071238;28;19977;-68
2021/07/02 06:29:41;;;;;;;;;;;15.50;99.90;;;;;;5069278;28;19928;-68
2021/07/02 06:32:07;;;;;;;;;;;15.50;99.90;;;;;;5068955;28;20058;-68
2021/07/02 06:34:34;;;;;;;;;;;15.50;99.90;;;;;;5069640;28;20015;-68
2021/07/02 06:37:01;;;;;;;;;;;15.50;99.90;;;;;;5066461;28;20317;-68
2021/07/02 06:39:27;;;;;;;;;;;15.50;99.90;;;;;;5069723;28;20017;-68
2021/07/02 06:41:54;;;;;;;;;;;15.40;99.90;;;;;;5071930;28;19979;-68
2021/07/02 06:44:21;;;;;;;;;;;15.50;99.90;;;;;;5068867;28;20051;-68
2021/07/02 06:46:47;;;;;;;;;;;15.50;99.90;;;;;;5067666;28;20725;-68
2021/07/02 06:49:14;;;;;;;;;;;15.50;99.90;;;;;;5067973;28;20395;-68
2021/07/02 06:51:41;;;;;;;;;;;15.50;99.90;;;;;;5065819;28;20099;-68
2021/07/02 06:54:07;;;;;;;;;;;15.60;99.90;;;;;;5066760;28;20388;-68
2021/07/02 06:56:34;;;;;;;;;;;15.60;99.90;;;;;;5065998;28;20000;-69
2021/07/02 06:59:01;;;;;;;;;;;15.60;99.90;;;;;;5070200;28;19924;-67
2021/07/02 07:01:27;;;;;;;;;;;15.70;99.90;;;;;;5069025;28;19990;-68
2021/07/02 07:03:54;;;;;;;;;;;15.70;99.90;;;;;;5084292;28;19937;-68
2021/07/02 07:06:21;;;;;;;;;;;15.70;99.90;;;;;;5069681;28;19982;-68
2021/07/02 07:08:48;;;;;;;;;;;15.80;99.90;;;;;;5067582;28;19970;-68
2021/07/02 07:11:14;;;;;;;;;;;15.80;99.90;;;;;;5070877;28;19982;-68
2021/07/02 07:13:41;;;;;;;;;;;15.80;99.90;;;;;;5067877;28;19939;-69
2021/07/02 07:16:09;;;;;;;;;;;15.80;99.90;;;;;;5068067;28;19947;-68
2021/07/02 07:18:35;;;;;;;;;;;15.80;99.90;;;;;;5066672;28;20019;-68
2021/07/02 07:21:02;;;;;;;;;;;15.80;99.90;;;;;;5064885;28;20030;-68
2021/07/02 07:23:29;;;;;;;;;;;15.80;99.90;;;;;;5066898;28;20454;-68
2021/07/02 07:25:56;;;;;;;;;;;15.80;99.90;;;;;;5068417;28;19975;-68
2021/07/02 07:28:22;;;;;;;;;;;15.80;99.90;;;;;;5065415;28;19984;-68
2021/07/02 07:30:49;;;;;;;;;;;15.90;99.90;;;;;;5067611;28;20511;-68
2021/07/02 07:33:17;;;;;;;;;;;15.90;99.90;;;;;;5067168;28;19925;-68
2021/07/02 07:35:45;;;;;;;;;;;15.80;99.90;;;;;;5097584;27;20047;-68
2021/07/02 07:38:12;;;;;;;;;;;15.80;99.90;;;;;;5077932;28;19972;-68
2021/07/02 07:40:39;;;;;;;;;;;15.80;99.90;;;;;;5064794;28;19972;-68
2021/07/02 07:43:05;;;;;;;;;;;15.80;99.90;;;;;;5065498;28;20014;-68
2021/07/02 07:45:32;;;;;;;;;;;15.80;99.90;;;;;;5067587;28;20246;-68
2021/07/02 07:47:59;;;;;;;;;;;15.90;99.90;;;;;;5066716;28;19928;-68
2021/07/02 07:50:28;;;;;;;;;;;15.90;99.90;;;;;;5096774;27;20437;-68
2021/07/02 07:52:59;;;;;;;;;;;15.90;99.90;;;;;;5064604;28;19928;-68
2021/07/02 07:55:26;;;;;;;;;;;15.90;99.90;;;;;;5067307;28;20321;-68
2021/07/02 07:57:53;;;;;;;;;;;15.90;99.90;;;;;;5065124;28;20326;-68
2021/07/02 08:00:20;;;;;;;;;;;15.90;99.90;;;;;;5066423;28;20652;-68
2021/07/02 08:02:50;;;;;;;;;;;15.90;99.90;;;;;;5065174;28;21387;-68
2021/07/02 08:05:17;;;;;;;;;;;15.90;99.90;;;;;;5067589;28;20043;-68
2021/07/02 08:07:44;;;;;;;;;;;16.00;99.90;;;;;;5064525;28;20241;-68
2021/07/02 08:10:12;;;;;;;;;;;15.90;99.90;;;;;;5097990;27;19997;-68
2021/07/02 08:12:39;;;;;;;;;;;15.90;99.90;;;;;;5064557;28;24266;-68
2021/07/02 08:15:08;;;;;;;;;;;16.00;99.90;;;;;;5064746;28;19967;-68
2021/07/02 08:17:35;;;;;;;;;;;16.00;99.90;;;;;;5064401;28;20375;-68
2021/07/02 08:20:06;;;;;;;;;;;16.10;99.90;;;;;;5065117;28;19935;-68
2021/07/02 08:22:33;;;;;;;;;;;16.00;99.90;;;;;;5064173;28;19956;-68
2021/07/02 08:25:00;;;;;;;;;;;16.00;99.90;;;;;;5066980;28;19969;-68
2021/07/02 08:27:28;;;;;;;;;;;16.10;99.90;;;;;;5063690;28;19963;-68
2021/07/02 08:29:54;;;;;;;;;;;16.00;99.90;;;;;;5064845;28;20395;-68
2021/07/02 08:32:21;;;;;;;;;;;16.00;99.90;;;;;;5062907;28;20021;-68
2021/07/02 08:34:48;;;;;;;;;;;16.00;99.90;;;;;;5064591;28;19980;-68
2021/07/02 08:37:14;;;;;;;;;;;16.00;99.90;;;;;;5098020;27;20005;-68
2021/07/02 08:39:41;;;;;;;;;;;16.10;99.90;;;;;;5065018;28;20366;-68
2021/07/02 08:42:08;;;;;;;;;;;16.10;99.90;;;;;;5063340;28;20368;-68
2021/07/02 08:44:35;;;;;;;;;;;16.10;99.90;;;;;;5080595;28;19931;-68
2021/07/02 08:47:03;;;;;;;;;;;16.10;99.90;;;;;;5064087;28;20257;-68
2021/07/02 08:49:33;;;;;;;;;;;16.00;99.90;;;;;;5066389;28;20455;-68
2021/07/02 08:52:00;;;;;;;;;;;16.00;99.90;;;;;;5063697;28;19928;-68
2021/07/02 08:54:27;;;;;;;;;;;16.00;99.90;;;;;;5065948;28;19928;-68
2021/07/02 08:56:56;;;;;;;;;;;16.00;99.90;;;;;;5097888;27;19967;-68
2021/07/02 08:59:24;;;;;;;;;;;16.10;99.90;;;;;;5067312;28;19986;-67
2021/07/02 09:01:51;;;;;;;;;;;16.10;99.90;;;;;;5065904;28;20292;-68
2021/07/02 09:04:23;;;;;;;;;;;16.10;99.90;;;;;;5066193;28;20399;-68
2021/07/02 09:07:04;;;;;;;;;;;16.10;99.90;;;;;;5064755;28;20037;-68
2021/07/02 09:09:58;;;;;;;;;;;16.10;99.90;;;;;;5067157;28;20454;-68
2021/07/02 09:12:25;;;;;;;;;;;16.20;99.90;;;;;;5061473;28;19936;-68
2021/07/02 09:14:58;;;;;;;;;;;16.20;99.90;;;;;;5065412;28;19955;-68
2021/07/02 09:17:25;;;;;;;;;;;16.20;99.90;;;;;;5063052;28;20019;-68
2021/07/02 09:20:05;;;;;;;;;;;16.30;99.90;;;;;;5096178;27;19925;-68
2021/07/02 09:22:39;;;;;;;;;;;16.30;99.90;;;;;;5066352;28;20257;-68
2021/07/02 09:25:11;;;;;;;;;;;16.30;99.90;;;;;;5066399;28;19970;-68
2021/07/02 09:27:40;;;;;;;;;;;16.30;99.90;;;;;;5065284;28;19955;-68
2021/07/02 09:30:11;;;;;;;;;;;16.30;99.90;;;;;;5068613;28;20165;-68
2021/07/02 09:32:54;;;;;;;;;;;16.30;99.90;;;;;;5066081;28;19932;-68
2021/07/02 09:35:23;;;;;;;;;;;16.30;99.90;;;;;;5066151;28;20532;-68
2021/07/02 09:37:53;;;;;;;;;;;16.30;99.90;;;;;;5067511;28;19956;-68
2021/07/02 09:40:22;;;;;;;;;;;16.30;99.90;;;;;;5068839;28;20087;-68
2021/07/02 09:43:03;;;;;;;;;;;16.30;99.90;;;;;;5074638;28;19971;-68
2021/07/02 09:45:31;;;;;;;;;;;16.30;99.90;;;;;;5069338;28;19924;-68
2021/07/02 09:48:05;;;;;;;;;;;16.40;99.90;;;;;;5065949;28;19960;-68
2021/07/02 09:50:32;;;;;;;;;;;16.30;99.90;;;;;;5069327;28;19932;-68
2021/07/02 09:53:00;;;;;;;;;;;16.30;99.90;;;;;;5067707;28;20387;-68
2021/07/02 09:55:30;;;;;;;;;;;16.30;99.90;;;;;;5067914;28;19955;-68
2021/07/02 09:58:04;;;;;;;;;;;16.30;99.90;;;;;;5065871;28;20053;-68
2021/07/02 10:00:33;;;;;;;;;;;16.30;99.90;;;;;;5068599;28;20384;-68
2021/07/02 10:03:00;;;;;;;;;;;16.30;99.90;;;;;;5065766;28;19963;-68
2021/07/02 10:05:28;;;;;;;;;;;16.30;99.90;;;;;;5071425;28;19925;-68
2021/07/02 10:08:00;;;;;;;;;;;16.20;99.90;;;;;;5066786;28;19985;-68
2021/07/02 10:10:27;;;;;;;;;;;16.20;99.90;;;;;;5068856;28;20000;-67
2021/07/02 10:12:54;;;;;;;;;;;16.30;99.90;;;;;;5102150;27;19974;-68
2021/07/02 10:15:21;;;;;;;;;;;16.30;99.90;;;;;;5074222;28;19924;-68
2021/07/02 10:17:48;;;;;;;;;;;16.30;99.90;;;;;;5084306;28;19953;-67
2021/07/02 10:20:16;;;;;;;;;;;16.40;99.90;;;;;;5102922;27;19965;-68
2021/07/02 10:22:44;;;;;;;;;;;16.40;99.90;;;;;;5073060;28;19932;-68
2021/07/02 10:25:12;;;;;;;;;;;16.50;99.90;;;;;;5073315;28;19928;-68
2021/07/02 10:27:39;;;;;;;;;;;16.60;99.90;;;;;;5070445;28;19970;-67
2021/07/02 10:30:07;;;;;;;;;;;16.60;99.90;;;;;;5068125;28;19947;-67
2021/07/02 10:32:34;;;;;;;;;;;16.80;99.90;;;;;;5069899;28;19967;-68
2021/07/02 10:35:01;;;;;;;;;;;16.80;99.90;;;;;;5072176;28;19925;-67
2021/07/02 10:37:29;;;;;;;;;;;16.90;99.90;;;;;;5073386;28;20708;-68
2021/07/02 10:39:59;;;;;;;;;;;16.90;99.90;;;;;;5104417;27;19964;-68
2021/07/02 10:42:26;;;;;;;;;;;16.90;99.90;;;;;;5070270;28;19982;-68
2021/07/02 10:44:53;;;;;;;;;;;16.90;99.90;;;;;;5072588;28;19971;-68
2021/07/02 10:47:20;;;;;;;;;;;16.90;99.90;;;;;;5078250;28;20008;-68
2021/07/02 10:49:48;;;;;;;;;;;17.00;99.90;;;;;;5066926;28;19968;-68
2021/07/02 10:52:24;;;;;;;;;;;17.00;99.90;;;;;;5069217;28;20096;-68
2021/07/02 10:54:56;;;;;;;;;;;17.10;99.90;;;;;;5071947;28;19964;-68
2021/07/02 10:57:23;;;;;;;;;;;17.10;99.90;;;;;;5067789;28;19997;-67
2021/07/02 10:59:51;;;;;;;;;;;17.20;99.90;;;;;;5070447;28;19976;-68
2021/07/02 11:02:18;;;;;;;;;;;17.20;99.90;;;;;;5068494;28;19975;-68
2021/07/02 11:04:45;;;;;;;;;;;17.30;99.90;;;;;;5071345;28;20391;-68
2021/07/02 11:07:12;;;;;;;;;;;17.30;99.90;;;;;;5079198;28;19974;-68
2021/07/02 11:09:55;;;;;;;;;;;17.40;99.90;;;;;;5070641;28;20009;-68
2021/07/02 11:12:28;;;;;;;;;;;17.40;99.90;;;;;;5071169;28;20264;-69
2021/07/02 11:14:56;;;;;;;;;;;17.50;99.90;;;;;;5072249;28;20003;-68
2021/07/02 11:17:23;;;;;;;;;;;17.50;99.90;;;;;;5068202;28;20014;-68
2021/07/02 11:20:09;;;;;;;;;;;17.60;99.90;;;;;;5067698;28;19986;-68
2021/07/02 11:22:39;;;;;;;;;;;17.60;99.90;;;;;;5070348;28;19928;-68
2021/07/02 11:25:13;;;;;;;;;;;17.70;99.90;;;;;;5070582;28;20387;-68
2021/07/02 11:27:45;;;;;;;;;;;17.70;99.90;;;;;;5070351;28;20330;-67
2021/07/02 11:30:12;;;;;;;;;;;17.70;99.90;;;;;;5069774;28;19975;-68
2021/07/02 11:32:44;;;;;;;;;;;17.80;99.90;;;;;;5069861;28;20751;-67
2021/07/02 11:35:16;;;;;;;;;;;17.80;99.90;;;;;;5069225;28;19929;-68
2021/07/02 11:37:59;;;;;;;;;;;17.90;99.90;;;;;;5078472;28;19971;-68
2021/07/02 11:40:29;;;;;;;;;;;18.00;99.90;;;;;;5071365;28;19932;-68
2021/07/02 11:43:19;;;;;;;;;;;18.00;99.90;;;;;;5065343;28;20306;-68
2021/07/02 11:45:51;;;;;;;;;;;18.10;99.90;;;;;;5069482;28;20597;-68
2021/07/02 11:48:21;;;;;;;;;;;18.20;99.90;;;;;;5065850;28;20415;-68
2021/07/02 11:50:47;;;;;;;;;;;18.20;99.90;;;;;;5069872;28;19932;-68
2021/07/02 11:53:31;;;;;;;;;;;18.30;99.90;;;;;;5069630;28;19963;-68
2021/07/02 11:56:04;;;;;;;;;;;18.30;99.90;;;;;;5068942;28;19967;-68
2021/07/02 11:58:33;;;;;;;;;;;18.40;99.90;;;;;;5070461;28;19956;-68
2021/07/02 12:01:20;;;;;;;;;;;18.50;99.90;;;;;;5065987;28;20059;-68
2021/07/02 12:03:47;;;;;;;;;;;18.60;99.90;;;;;;5076491;28;20877;-67
2021/07/02 12:06:25;;;;;;;;;;;18.80;99.90;;;;;;5071284;28;19924;-68
2021/07/02 12:08:59;;;;;;;;;;;18.80;99.90;;;;;;5067017;28;19974;-67
2021/07/02 12:11:34;;;;;;;;;;;18.80;99.90;;;;;;5069869;28;19959;-67
2021/07/02 12:14:01;;;;;;;;;;;18.90;99.90;;;;;;5068865;28;19925;-68
2021/07/02 12:16:32;;;;;;;;;;;19.00;99.90;;;;;;5068694;28;19929;-67
2021/07/02 12:18:59;;;;;;;;;;;19.10;99.90;;;;;;5068037;28;19967;-68
2021/07/02 12:21:29;;;;;;;;;;;19.10;99.90;;;;;;5064005;28;20059;-68
2021/07/02 12:23:57;;;;;;;;;;;19.20;99.90;;;;;;5068104;28;20013;-69
2021/07/02 12:26:26;;;;;;;;;;;19.20;99.90;;;;;;5070248;28;20146;-69
2021/07/02 12:29:02;;;;;;;;;;;19.30;99.90;;;;;;5070983;28;19928;-69
2021/07/02 12:31:38;;;;;;;;;;;19.30;99.90;;;;;;5064495;28;20094;-68
2021/07/02 12:34:06;;;;;;;;;;;19.30;99.90;;;;;;5066780;28;19932;-67
2021/07/02 12:36:34;;;;;;;;;;;19.30;99.90;;;;;;5067821;28;20016;-67
2021/07/02 12:39:04;;;;;;;;;;;19.30;99.90;;;;;;5065240;28;20332;-68
2021/07/02 12:41:34;;;;;;;;;;;19.30;99.90;;;;;;5065008;28;19959;-68
2021/07/02 12:44:05;;;;;;;;;;;19.20;99.90;;;;;;5065093;28;19979;-67
2021/07/02 12:46:32;;;;;;;;;;;19.30;99.90;;;;;;5079644;28;20371;-67
2021/07/02 12:49:17;;;;;;;;;;;19.30;99.90;;;;;;5066231;28;20368;-67
2021/07/02 12:52:00;;;;;;;;;;;19.40;99.90;;;;;;5068082;28;19970;-67
2021/07/02 12:54:47;;;;;;;;;;;19.50;99.90;;;;;;5065692;28;19977;-68
2021/07/02 12:57:18;;;;;;;;;;;19.50;99.90;;;;;;5065538;28;19964;-68
2021/07/02 12:59:48;;;;;;;;;;;19.70;99.90;;;;;;5068542;28;20030;-67
2021/07/02 13:02:26;;;;;;;;;;;19.60;99.90;;;;;;5066890;28;20580;-67
2021/07/02 13:04:53;;;;;;;;;;;19.70;99.90;;;;;;5066666;28;19968;-67
2021/07/02 13:07:20;;;;;;;;;;;19.70;99.90;;;;;;5065828;28;20494;-67
2021/07/02 13:09:47;;;;;;;;;;;19.70;99.90;;;;;;5065845;28;20409;-68
2021/07/02 13:12:15;;;;;;;;;;;19.70;99.90;;;;;;5068683;28;19999;-67
2021/07/02 13:14:44;;;;;;;;;;;19.70;99.90;;;;;;5071595;28;19978;-68
2021/07/02 13:17:11;;;;;;;;;;;19.70;99.90;;;;;;5072966;28;19978;-68
2021/07/02 13:19:38;;;;;;;;;;;19.80;99.90;;;;;;5071189;28;20287;-67
2021/07/02 13:22:15;;;;;;;;;;;19.80;99.90;;;;;;5099819;27;19971;-68
2021/07/02 13:24:42;;;;;;;;;;;19.90;99.90;;;;;;5102651;27;20374;-68
2021/07/02 13:27:10;;;;;;;;;;;20.00;99.90;;;;;;5069139;28;20236;-68
2021/07/02 13:29:41;;;;;;;;;;;20.10;99.90;;;;;;5070563;28;20131;-68
2021/07/02 13:32:13;;;;;;;;;;;20.00;99.90;;;;;;5066481;28;20315;-67
2021/07/02 13:34:41;;;;;;;;;;;20.00;99.90;;;;;;5071417;28;19936;-68
2021/07/02 13:37:08;;;;;;;;;;;20.00;99.90;;;;;;5069690;28;19955;-68
2021/07/02 13:39:45;;;;;;;;;;;19.90;99.90;;;;;;5069961;28;19952;-68
2021/07/02 13:42:30;;;;;;;;;;;19.90;99.90;;;;;;5071028;28;19932;-67
2021/07/02 13:44:58;;;;;;;;;;;19.90;99.90;;;;;;5071466;28;19970;-67
2021/07/02 13:47:29;;;;;;;;;;;19.90;99.90;;;;;;5070577;28;20379;-67
2021/07/02 13:49:59;;;;;;;;;;;19.80;99.90;;;;;;5070916;28;20131;-67
2021/07/02 13:52:29;;;;;;;;;;;19.80;99.90;;;;;;5068110;28;20071;-68
2021/07/02 13:54:57;;;;;;;;;;;19.90;99.90;;;;;;5071273;28;19971;-68
2021/07/02 13:57:24;;;;;;;;;;;19.90;99.90;;;;;;5069556;28;19924;-68
2021/07/02 13:59:51;;;;;;;;;;;19.90;99.90;;;;;;5067797;28;19928;-67
2021/07/02 14:02:18;;;;;;;;;;;19.90;99.90;;;;;;5068299;28;20013;-67
2021/07/02 14:04:45;;;;;;;;;;;19.90;99.90;;;;;;5069925;28;19990;-67
2021/07/02 14:07:12;;;;;;;;;;;19.90;99.90;;;;;;5069149;28;20316;-68
2021/07/02 14:09:39;;;;;;;;;;;19.90;99.90;;;;;;5068606;28;20320;-68
2021/07/02 14:12:06;;;;;;;;;;;20.00;99.90;;;;;;5066478;28;19970;-67
2021/07/02 14:14:33;;;;;;;;;;;20.00;99.90;;;;;;5067532;28;19968;-67
2021/07/02 14:17:00;;;;;;;;;;;20.00;99.90;;;;;;5067061;28;20451;-67
2021/07/02 14:19:27;;;;;;;;;;;20.10;99.90;;;;;;5068977;28;20086;-67
2021/07/02 14:21:54;;;;;;;;;;;20.20;99.90;;;;;;5065629;28;20387;-68
2021/07/02 14:24:20;;;;;;;;;;;20.30;99.90;;;;;;5068444;28;20382;-67
2021/07/02 14:26:47;;;;;;;;;;;20.40;99.90;;;;;;5070710;28;20330;-68
2021/07/02 14:29:14;;;;;;;;;;;20.50;99.90;;;;;;5068613;28;20068;-68